Aeroporto :
LOGIN :

Iscrizione | Disclaimer

   EN    FR    IT 

 










Sommario :    VFR   VFR Marginale   IFR   IFR Intensivo   IFR Molto Intensivo
Visibilità : 
Base nubi : 
>= 8 km
>= 3000ft
5 / 8 km
1000 / 3000 ft
1500m / 5 km
500 / 1000 ft
800 / 1500m
200 / 500 ft
< 800m
< 200 ft
Simboli :   Temporali  Nebbia  Neve Forte  Precipitazioni Forti  Vento > 20 kt
SIGMETs :   Varie  Temporali  Ghiacco  Turbolenza  Onda orograficha  Ceneri Vulcaniche






- Altitudine del aeroporto : 226 ft
- Codice IATA : BEX


EGUB - RAF Benson

ULTIMO METAR :
  • 141320Z 11007KT 9999 FEW014 BKN022 06/04 Q0995 TEMPO BKN025 RMK WHT TEMPO BLU

METARs OBSOLETI :
  • 141250Z 12004KT 9999 FEW009 BKN013 06/04 Q0995 GRN BECMG BKN015 RMK GRN BECMG WHT
  • 141150Z 13005KT 9999 FEW008 BKN013 06/04 Q0994 BECMG BKN015 RMK GRN BECMG WHT
  • 141122Z 15004KT 9999 FEW006 OVC013 05/04 Q0994 NOSIG RMK GRN GRN
  • 141050Z 16008KT 9999 FEW006 OVC009 04/03 Q0994 NOSIG RMK GRN GRN

TAF TAF EGUB
Valido dal 14 a 12 ore il 14 a 21 ore UTC


141025Z 1412/1421 10007KT 9999 BKN010
BECMG 1412/1415 BKN015
PROB30
TEMPO 1415/1418 FEW015 SCT025
TEMPO 1418/1421 BKN007
ATIS : +44 1491-837766 (x7524)



MetMap, La meteo Aeronautica in un colpo d'occhio ! - Copyright ORBIFLY Dicembre 2007 - Disclaimer

ORBIFLY MET'MAP TEAM :

Programmazione e sviluppo : Alexandra Zaïnal
Concezione e sviluppo : Baudouin d'Aumeries
Co-Programmazione e sviluppo : Marc-Olivier Méhu
Supporto tecnico e logistico : Manuel Goepfert
Aiuto per la traduzione : Arnaldo La Scala

Contatto : metmap@orbifly.com




FONTI E CREDITI :

   NOAA